EZY35JB EGPH-EGKK
Flight info
| Callsign | EZY35JB |
|---|---|
| Flight time | 1h 14m |
| Altitude | 39000 |
| Route | GOSAM P600 FENIK L612 NAVSO DCT ADZOP DCT EGTOC DCT KEPAD L151 DISIT |
| Aircraft | A20N/M-SDE2E3FGHIJ1RWXYZ/LB1 |
Departure
| Time | 2026-05-05 11:41 |
|---|---|
| Airport | Edinburgh Airport (EGPH) |
Arrival
| Time | 2026-05-05 12:55 |
|---|---|
| Airport | London Gatwick Airport (EGKK) |
| Time | Latitude | Longitude | Altitude | Speed | Heading |
|---|---|---|---|---|---|
| 2026-05-05 11:07 | 55.94802 | -3.36637 | 103 ft | 0 kts | 90° |
| 2026-05-05 11:30 | 55.94802 | -3.36649 | 104 ft | 2 kts | 89° |
| 2026-05-05 11:31 | 55.94802 | -3.36676 | 103 ft | 2 kts | 90° |
| 2026-05-05 11:31 | 55.94802 | -3.36702 | 103 ft | 2 kts | 90° |
| 2026-05-05 11:31 | 55.94802 | -3.36721 | 103 ft | 0 kts | 90° |
| 2026-05-05 11:31 | 55.94799 | -3.36745 | 103 ft | 2 kts | 63° |
| 2026-05-05 11:32 | 55.94790 | -3.36766 | 104 ft | 2 kts | 35° |
| 2026-05-05 11:32 | 55.94776 | -3.36777 | 104 ft | 2 kts | 7° |
| 2026-05-05 11:32 | 55.94769 | -3.36778 | 104 ft | 1 kts | 358° |
| 2026-05-05 11:32 | 55.94768 | -3.36778 | 104 ft | 0 kts | 359° |
| 2026-05-05 11:35 | 55.94782 | -3.36778 | 104 ft | 4 kts | 359° |
| 2026-05-05 11:35 | 55.94826 | -3.36780 | 103 ft | 6 kts | 359° |
| 2026-05-05 11:36 | 55.94883 | -3.36793 | 102 ft | 9 kts | 340° |
| 2026-05-05 11:36 | 55.94924 | -3.36888 | 101 ft | 11 kts | 258° |
| 2026-05-05 11:36 | 55.94884 | -3.37017 | 101 ft | 12 kts | 238° |
| 2026-05-05 11:36 | 55.94841 | -3.37146 | 102 ft | 12 kts | 239° |
| 2026-05-05 11:37 | 55.94796 | -3.37278 | 102 ft | 13 kts | 238° |
| 2026-05-05 11:37 | 55.94745 | -3.37426 | 102 ft | 14 kts | 238° |
| 2026-05-05 11:37 | 55.94692 | -3.37580 | 103 ft | 14 kts | 239° |
| 2026-05-05 11:37 | 55.94640 | -3.37739 | 104 ft | 14 kts | 239° |
| 2026-05-05 11:38 | 55.94590 | -3.37887 | 106 ft | 13 kts | 240° |
| 2026-05-05 11:38 | 55.94542 | -3.38031 | 108 ft | 13 kts | 239° |
| 2026-05-05 11:38 | 55.94495 | -3.38164 | 109 ft | 12 kts | 238° |
| 2026-05-05 11:38 | 55.94450 | -3.38298 | 111 ft | 12 kts | 239° |
| 2026-05-05 11:39 | 55.94400 | -3.38444 | 112 ft | 15 kts | 239° |
| 2026-05-05 11:39 | 55.94346 | -3.38606 | 112 ft | 15 kts | 239° |
| 2026-05-05 11:39 | 55.94292 | -3.38766 | 115 ft | 14 kts | 239° |
| 2026-05-05 11:39 | 55.94317 | -3.38899 | 115 ft | 13 kts | 327° |
| 2026-05-05 11:40 | 55.94403 | -3.38965 | 114 ft | 14 kts | 9° |
| 2026-05-05 11:40 | 55.94467 | -3.38819 | 112 ft | 19 kts | 59° |
| 2026-05-05 11:40 | 55.94665 | -3.38240 | 106 ft | 90 kts | 60° |
| 2026-05-05 11:40 | 55.95106 | -3.36942 | 101 ft | 150 kts | 59° |
| 2026-05-05 11:41 | 55.95686 | -3.35260 | 467 ft | 168 kts | 59° |
| 2026-05-05 11:41 | 55.96314 | -3.33447 | 1105 ft | 176 kts | 58° |
| 2026-05-05 11:41 | 55.97055 | -3.31679 | 1838 ft | 183 kts | 42° |
| 2026-05-05 11:41 | 55.98084 | -3.30242 | 2358 ft | 199 kts | 37° |
| 2026-05-05 11:42 | 55.99255 | -3.28695 | 2920 ft | 215 kts | 34° |
| 2026-05-05 11:42 | 56.00691 | -3.27715 | 3433 ft | 234 kts | 6° |
| 2026-05-05 11:42 | 56.02338 | -3.28236 | 3974 ft | 254 kts | 335° |
| 2026-05-05 11:42 | 56.03663 | -3.30380 | 4751 ft | 264 kts | 302° |
| 2026-05-05 11:43 | 56.04164 | -3.33494 | 5642 ft | 269 kts | 271° |
| 2026-05-05 11:43 | 56.03716 | -3.36704 | 6568 ft | 272 kts | 246° |
| 2026-05-05 11:43 | 56.02879 | -3.39680 | 7491 ft | 273 kts | 247° |
| 2026-05-05 11:43 | 56.02128 | -3.42835 | 8380 ft | 274 kts | 252° |
| 2026-05-05 11:44 | 56.01530 | -3.46002 | 9239 ft | 275 kts | 256° |
| 2026-05-05 11:44 | 56.01005 | -3.49295 | 10098 ft | 277 kts | 258° |
| 2026-05-05 11:44 | 56.00513 | -3.52644 | 10803 ft | 284 kts | 259° |
| 2026-05-05 11:44 | 56.00018 | -3.56114 | 11339 ft | 297 kts | 259° |
| 2026-05-05 11:45 | 55.99510 | -3.59688 | 12098 ft | 301 kts | 258° |
| 2026-05-05 11:45 | 55.98991 | -3.63332 | 12925 ft | 303 kts | 258° |
| 2026-05-05 11:45 | 55.98470 | -3.66963 | 13711 ft | 306 kts | 257° |
| 2026-05-05 11:45 | 55.97937 | -3.70671 | 14467 ft | 309 kts | 257° |
| 2026-05-05 11:46 | 55.97400 | -3.74403 | 15198 ft | 313 kts | 258° |
| 2026-05-05 11:46 | 55.96860 | -3.78145 | 15908 ft | 316 kts | 258° |
| 2026-05-05 11:46 | 55.96312 | -3.81932 | 16629 ft | 318 kts | 257° |
| 2026-05-05 11:46 | 55.95758 | -3.85751 | 17315 ft | 321 kts | 257° |
| 2026-05-05 11:47 | 55.95193 | -3.89637 | 17974 ft | 324 kts | 257° |
| 2026-05-05 11:47 | 55.94627 | -3.93519 | 18622 ft | 328 kts | 257° |
| 2026-05-05 11:47 | 55.94065 | -3.97486 | 19259 ft | 331 kts | 259° |
| 2026-05-05 11:47 | 55.93581 | -4.01496 | 19874 ft | 335 kts | 256° |
| 2026-05-05 11:48 | 55.90799 | -4.08091 | 20975 ft | 354 kts | 214° |
| 2026-05-05 11:48 | 55.88552 | -4.09999 | 21584 ft | 359 kts | 206° |
| 2026-05-05 11:48 | 55.86278 | -4.11871 | 22137 ft | 362 kts | 210° |
| 2026-05-05 11:49 | 55.84081 | -4.14027 | 22670 ft | 365 kts | 214° |
| 2026-05-05 11:49 | 55.81932 | -4.16419 | 23210 ft | 367 kts | 216° |
| 2026-05-05 11:49 | 55.79812 | -4.18917 | 23742 ft | 370 kts | 217° |
| 2026-05-05 11:49 | 55.77684 | -4.21498 | 24260 ft | 373 kts | 217° |
| 2026-05-05 11:50 | 55.75558 | -4.24144 | 24786 ft | 376 kts | 217° |
| 2026-05-05 11:50 | 55.73215 | -4.26331 | 25264 ft | 384 kts | 199° |
| 2026-05-05 11:50 | 55.70560 | -4.26890 | 25758 ft | 392 kts | 178° |
| 2026-05-05 11:50 | 55.67925 | -4.25760 | 26242 ft | 399 kts | 158° |
| 2026-05-05 11:51 | 55.65493 | -4.23440 | 26750 ft | 401 kts | 153° |
| 2026-05-05 11:51 | 55.63030 | -4.20955 | 27206 ft | 404 kts | 153° |
| 2026-05-05 11:51 | 55.60580 | -4.18505 | 27632 ft | 407 kts | 153° |
| 2026-05-05 11:51 | 55.58122 | -4.16073 | 28051 ft | 410 kts | 153° |
| 2026-05-05 11:52 | 55.55603 | -4.13600 | 28466 ft | 413 kts | 153° |
| 2026-05-05 11:52 | 55.53064 | -4.11120 | 28879 ft | 415 kts | 154° |
| 2026-05-05 11:52 | 55.50550 | -4.08673 | 29277 ft | 417 kts | 154° |
| 2026-05-05 11:52 | 55.47992 | -4.06185 | 29667 ft | 420 kts | 154° |
| 2026-05-05 11:53 | 55.45462 | -4.03729 | 30044 ft | 422 kts | 154° |
| 2026-05-05 11:53 | 55.42867 | -4.01213 | 30430 ft | 424 kts | 154° |
| 2026-05-05 11:53 | 55.40275 | -3.98704 | 30801 ft | 425 kts | 154° |
| 2026-05-05 11:53 | 55.37671 | -3.96184 | 31127 ft | 427 kts | 154° |
| 2026-05-05 11:54 | 55.35064 | -3.93665 | 31452 ft | 429 kts | 154° |
| 2026-05-05 11:54 | 55.32446 | -3.91141 | 31757 ft | 431 kts | 154° |
| 2026-05-05 11:54 | 55.29824 | -3.88616 | 32048 ft | 433 kts | 154° |
| 2026-05-05 11:54 | 55.27153 | -3.86049 | 32329 ft | 435 kts | 154° |
| 2026-05-05 11:55 | 55.24495 | -3.83616 | 32593 ft | 436 kts | 157° |
| 2026-05-05 11:55 | 55.21732 | -3.81432 | 32856 ft | 437 kts | 160° |
| 2026-05-05 11:55 | 55.18864 | -3.79523 | 33114 ft | 437 kts | 164° |
| 2026-05-05 11:55 | 55.15964 | -3.77906 | 33365 ft | 437 kts | 166° |
| 2026-05-05 11:56 | 55.13077 | -3.76333 | 33669 ft | 437 kts | 166° |
| 2026-05-05 11:56 | 55.10191 | -3.74753 | 34009 ft | 436 kts | 166° |
| 2026-05-05 11:56 | 55.07257 | -3.73148 | 34334 ft | 435 kts | 166° |
| 2026-05-05 11:56 | 55.04398 | -3.71586 | 34649 ft | 434 kts | 166° |
| 2026-05-05 11:57 | 55.01549 | -3.70032 | 34905 ft | 433 kts | 166° |
| 2026-05-05 11:57 | 54.98647 | -3.68453 | 35124 ft | 433 kts | 166° |
| 2026-05-05 11:57 | 54.95792 | -3.66899 | 35331 ft | 433 kts | 165° |
| 2026-05-05 11:57 | 54.92892 | -3.65247 | 35520 ft | 433 kts | 164° |
| 2026-05-05 11:58 | 54.90045 | -3.63583 | 35711 ft | 433 kts | 164° |
| 2026-05-05 11:58 | 54.87183 | -3.61907 | 35894 ft | 433 kts | 164° |
| 2026-05-05 11:58 | 54.84334 | -3.60242 | 36044 ft | 434 kts | 164° |
| 2026-05-05 11:58 | 54.81468 | -3.58571 | 36186 ft | 434 kts | 164° |
| 2026-05-05 11:59 | 54.78592 | -3.56900 | 36319 ft | 435 kts | 163° |
| 2026-05-05 11:59 | 54.75709 | -3.55227 | 36457 ft | 435 kts | 163° |
| 2026-05-05 11:59 | 54.72845 | -3.53568 | 36635 ft | 436 kts | 163° |
| 2026-05-05 11:59 | 54.69958 | -3.51899 | 36816 ft | 436 kts | 163° |
| 2026-05-05 12:00 | 54.67081 | -3.50241 | 36994 ft | 436 kts | 163° |
| 2026-05-05 12:00 | 54.64217 | -3.48591 | 37162 ft | 437 kts | 163° |
| 2026-05-05 12:00 | 54.61319 | -3.46926 | 37339 ft | 437 kts | 163° |
| 2026-05-05 12:00 | 54.58468 | -3.45289 | 37509 ft | 437 kts | 163° |
| 2026-05-05 12:01 | 54.55562 | -3.43625 | 37679 ft | 437 kts | 163° |
| 2026-05-05 12:01 | 54.52692 | -3.41981 | 37844 ft | 437 kts | 163° |
| 2026-05-05 12:01 | 54.49812 | -3.40336 | 37998 ft | 437 kts | 163° |
| 2026-05-05 12:01 | 54.46949 | -3.38702 | 38137 ft | 437 kts | 163° |
| 2026-05-05 12:02 | 54.44046 | -3.37049 | 38272 ft | 438 kts | 163° |
| 2026-05-05 12:02 | 54.41174 | -3.35416 | 38403 ft | 438 kts | 163° |
| 2026-05-05 12:02 | 54.38282 | -3.33772 | 38539 ft | 438 kts | 164° |
| 2026-05-05 12:02 | 54.35383 | -3.32127 | 38677 ft | 437 kts | 164° |
| 2026-05-05 12:03 | 54.32520 | -3.30504 | 38812 ft | 437 kts | 164° |
| 2026-05-05 12:03 | 54.29616 | -3.28861 | 38942 ft | 437 kts | 164° |
| 2026-05-05 12:03 | 54.23848 | -3.25608 | 39034 ft | 438 kts | 163° |
| 2026-05-05 12:04 | 54.18131 | -3.22392 | 39036 ft | 438 kts | 163° |
| 2026-05-05 12:04 | 54.12342 | -3.19144 | 39034 ft | 437 kts | 163° |
| 2026-05-05 12:05 | 54.06564 | -3.15912 | 39034 ft | 437 kts | 163° |
| 2026-05-05 12:05 | 54.00837 | -3.12719 | 39034 ft | 436 kts | 163° |
| 2026-05-05 12:06 | 53.95059 | -3.09506 | 39042 ft | 436 kts | 163° |
| 2026-05-05 12:06 | 53.89249 | -3.06283 | 39037 ft | 436 kts | 163° |
| 2026-05-05 12:07 | 53.83589 | -3.03154 | 39047 ft | 436 kts | 163° |
| 2026-05-05 12:07 | 53.77879 | -3.00009 | 39043 ft | 436 kts | 163° |
| 2026-05-05 12:08 | 53.72066 | -2.96814 | 39040 ft | 437 kts | 163° |
| 2026-05-05 12:08 | 53.66263 | -2.93630 | 39043 ft | 437 kts | 163° |
| 2026-05-05 12:09 | 53.60489 | -2.90473 | 39043 ft | 437 kts | 163° |
| 2026-05-05 12:09 | 53.54734 | -2.87337 | 39043 ft | 436 kts | 163° |
| 2026-05-05 12:10 | 53.48947 | -2.84193 | 39041 ft | 435 kts | 163° |
| 2026-05-05 12:10 | 53.43211 | -2.81087 | 39039 ft | 435 kts | 163° |
| 2026-05-05 12:11 | 53.37478 | -2.77989 | 39036 ft | 436 kts | 163° |
| 2026-05-05 12:11 | 53.31712 | -2.74883 | 39035 ft | 436 kts | 163° |
| 2026-05-05 12:12 | 53.25939 | -2.71780 | 39035 ft | 436 kts | 163° |
| 2026-05-05 12:12 | 53.20184 | -2.68695 | 39030 ft | 435 kts | 163° |
| 2026-05-05 12:13 | 53.14453 | -2.65633 | 39022 ft | 434 kts | 163° |
| 2026-05-05 12:13 | 53.08705 | -2.62570 | 39019 ft | 434 kts | 163° |
| 2026-05-05 12:14 | 53.02937 | -2.59505 | 39019 ft | 434 kts | 163° |
| 2026-05-05 12:14 | 52.97174 | -2.56451 | 39006 ft | 434 kts | 163° |
| 2026-05-05 12:15 | 52.91409 | -2.53404 | 38294 ft | 440 kts | 162° |
| 2026-05-05 12:15 | 52.88517 | -2.51882 | 37473 ft | 446 kts | 162° |
| 2026-05-05 12:15 | 52.85573 | -2.50252 | 36771 ft | 447 kts | 159° |
| 2026-05-05 12:16 | 52.82700 | -2.48352 | 36257 ft | 445 kts | 155° |
| 2026-05-05 12:16 | 52.79897 | -2.46153 | 35876 ft | 443 kts | 152° |
| 2026-05-05 12:16 | 52.77236 | -2.43718 | 35417 ft | 441 kts | 148° |
| 2026-05-05 12:16 | 52.74653 | -2.40999 | 34922 ft | 439 kts | 144° |
| 2026-05-05 12:17 | 52.72196 | -2.38265 | 34173 ft | 434 kts | 144° |
| 2026-05-05 12:17 | 52.69776 | -2.35577 | 33031 ft | 434 kts | 144° |
| 2026-05-05 12:17 | 52.67314 | -2.32855 | 31658 ft | 437 kts | 145° |
| 2026-05-05 12:17 | 52.64753 | -2.30037 | 30492 ft | 437 kts | 145° |
| 2026-05-05 12:18 | 52.62220 | -2.27255 | 29624 ft | 436 kts | 146° |
| 2026-05-05 12:18 | 52.59726 | -2.24523 | 29133 ft | 428 kts | 146° |
| 2026-05-05 12:18 | 52.57565 | -2.22160 | 29007 ft | 415 kts | 146° |
| 2026-05-05 12:18 | 52.55879 | -2.20319 | 29008 ft | 403 kts | 146° |
| 2026-05-05 12:19 | 52.51609 | -2.15659 | 28999 ft | 396 kts | 146° |
| 2026-05-05 12:19 | 52.47748 | -2.11454 | 29009 ft | 395 kts | 147° |
| 2026-05-05 12:20 | 52.43244 | -2.06559 | 28992 ft | 393 kts | 147° |
| 2026-05-05 12:20 | 52.40963 | -2.04090 | 28618 ft | 392 kts | 147° |
| 2026-05-05 12:20 | 52.38674 | -2.01609 | 27705 ft | 400 kts | 148° |
| 2026-05-05 12:21 | 52.36531 | -1.99289 | 26894 ft | 404 kts | 148° |
| 2026-05-05 12:21 | 52.34921 | -1.97553 | 26432 ft | 403 kts | 148° |
| 2026-05-05 12:21 | 52.32656 | -1.95112 | 25861 ft | 400 kts | 148° |
| 2026-05-05 12:21 | 52.30444 | -1.92732 | 25319 ft | 397 kts | 148° |
| 2026-05-05 12:22 | 52.28104 | -1.90214 | 24743 ft | 394 kts | 148° |
| 2026-05-05 12:22 | 52.25866 | -1.87810 | 23994 ft | 386 kts | 148° |
| 2026-05-05 12:22 | 52.23622 | -1.85401 | 22905 ft | 387 kts | 148° |
| 2026-05-05 12:22 | 52.21382 | -1.83005 | 22219 ft | 385 kts | 148° |
| 2026-05-05 12:23 | 52.19158 | -1.80624 | 21762 ft | 380 kts | 148° |
| 2026-05-05 12:23 | 52.16975 | -1.78287 | 21307 ft | 376 kts | 148° |
| 2026-05-05 12:23 | 52.14773 | -1.75935 | 20846 ft | 372 kts | 148° |
| 2026-05-05 12:23 | 52.12631 | -1.73650 | 20398 ft | 369 kts | 148° |
| 2026-05-05 12:24 | 52.10481 | -1.71360 | 19951 ft | 366 kts | 148° |
| 2026-05-05 12:24 | 52.08379 | -1.69124 | 19627 ft | 359 kts | 147° |
| 2026-05-05 12:24 | 52.06300 | -1.66918 | 19330 ft | 352 kts | 147° |
| 2026-05-05 12:24 | 52.04265 | -1.64755 | 19031 ft | 346 kts | 147° |
| 2026-05-05 12:25 | 52.02267 | -1.62636 | 18726 ft | 340 kts | 147° |
| 2026-05-05 12:25 | 52.00307 | -1.60557 | 18436 ft | 335 kts | 147° |
| 2026-05-05 12:25 | 51.98379 | -1.58515 | 18149 ft | 330 kts | 147° |
| 2026-05-05 12:25 | 51.96462 | -1.56489 | 17863 ft | 326 kts | 147° |
| 2026-05-05 12:26 | 51.94572 | -1.54492 | 17580 ft | 323 kts | 147° |
| 2026-05-05 12:26 | 51.92674 | -1.52489 | 17295 ft | 321 kts | 147° |
| 2026-05-05 12:26 | 51.90812 | -1.50525 | 17016 ft | 319 kts | 147° |
| 2026-05-05 12:26 | 51.88976 | -1.48590 | 16739 ft | 317 kts | 147° |
| 2026-05-05 12:27 | 51.87119 | -1.46635 | 16461 ft | 316 kts | 147° |
| 2026-05-05 12:27 | 51.85275 | -1.44695 | 16185 ft | 315 kts | 146° |
| 2026-05-05 12:27 | 51.83502 | -1.42833 | 15917 ft | 314 kts | 146° |
| 2026-05-05 12:27 | 51.81684 | -1.40924 | 15643 ft | 313 kts | 146° |
| 2026-05-05 12:28 | 51.79862 | -1.39016 | 15368 ft | 312 kts | 146° |
| 2026-05-05 12:28 | 51.78032 | -1.37099 | 15096 ft | 312 kts | 146° |
| 2026-05-05 12:28 | 51.76138 | -1.35119 | 14976 ft | 330 kts | 146° |
| 2026-05-05 12:28 | 51.74250 | -1.33148 | 14974 ft | 335 kts | 147° |
| 2026-05-05 12:29 | 51.72293 | -1.31109 | 14973 ft | 336 kts | 147° |
| 2026-05-05 12:29 | 51.70328 | -1.29061 | 14971 ft | 337 kts | 147° |
| 2026-05-05 12:29 | 51.68367 | -1.27019 | 14971 ft | 337 kts | 147° |
| 2026-05-05 12:29 | 51.67493 | -1.26110 | 14972 ft | 337 kts | 147° |
| 2026-05-05 12:30 | 51.65081 | -1.23605 | 14971 ft | 336 kts | 148° |
| 2026-05-05 12:30 | 51.63005 | -1.21935 | 14967 ft | 336 kts | 158° |
| 2026-05-05 12:30 | 51.60807 | -1.20625 | 14967 ft | 337 kts | 160° |
| 2026-05-05 12:30 | 51.58617 | -1.19404 | 14968 ft | 337 kts | 161° |
| 2026-05-05 12:31 | 51.56562 | -1.18273 | 14969 ft | 336 kts | 161° |
| 2026-05-05 12:31 | 51.54192 | -1.16973 | 14967 ft | 336 kts | 161° |
| 2026-05-05 12:31 | 51.51985 | -1.15771 | 14966 ft | 336 kts | 161° |
| 2026-05-05 12:31 | 51.49755 | -1.14571 | 14968 ft | 337 kts | 161° |
| 2026-05-05 12:32 | 51.47541 | -1.13385 | 14953 ft | 335 kts | 161° |
| 2026-05-05 12:32 | 51.45340 | -1.12196 | 14662 ft | 331 kts | 161° |
| 2026-05-05 12:32 | 51.43160 | -1.11030 | 14185 ft | 331 kts | 161° |
| 2026-05-05 12:32 | 51.40987 | -1.09882 | 13966 ft | 331 kts | 161° |
| 2026-05-05 12:33 | 51.38789 | -1.08729 | 13963 ft | 333 kts | 161° |
| 2026-05-05 12:33 | 51.36586 | -1.07577 | 13960 ft | 333 kts | 161° |
| 2026-05-05 12:33 | 51.34377 | -1.06425 | 13961 ft | 333 kts | 161° |
| 2026-05-05 12:33 | 51.32178 | -1.05283 | 13961 ft | 333 kts | 161° |
| 2026-05-05 12:34 | 51.29980 | -1.04144 | 13959 ft | 333 kts | 161° |
| 2026-05-05 12:34 | 51.27862 | -1.03048 | 13857 ft | 328 kts | 161° |
| 2026-05-05 12:34 | 51.25666 | -1.01921 | 13437 ft | 327 kts | 161° |
| 2026-05-05 12:34 | 51.23511 | -1.00822 | 12972 ft | 327 kts | 161° |
| 2026-05-05 12:35 | 51.21440 | -0.99693 | 12545 ft | 324 kts | 154° |
| 2026-05-05 12:35 | 51.19670 | -0.97537 | 12059 ft | 318 kts | 125° |
| 2026-05-05 12:35 | 51.18572 | -0.94548 | 11673 ft | 313 kts | 115° |
| 2026-05-05 12:35 | 51.17631 | -0.91461 | 11246 ft | 312 kts | 114° |
| 2026-05-05 12:36 | 51.16674 | -0.88373 | 10820 ft | 310 kts | 115° |
| 2026-05-05 12:36 | 51.15681 | -0.85310 | 10487 ft | 305 kts | 116° |
| 2026-05-05 12:36 | 51.14696 | -0.82379 | 10306 ft | 296 kts | 117° |
| 2026-05-05 12:36 | 51.13726 | -0.79551 | 10085 ft | 288 kts | 117° |
| 2026-05-05 12:37 | 51.12765 | -0.76784 | 9716 ft | 286 kts | 117° |
| 2026-05-05 12:37 | 51.11805 | -0.74043 | 9324 ft | 285 kts | 117° |
| 2026-05-05 12:37 | 51.10837 | -0.71299 | 8939 ft | 284 kts | 117° |
| 2026-05-05 12:37 | 51.09864 | -0.68550 | 8560 ft | 282 kts | 117° |
| 2026-05-05 12:38 | 51.08908 | -0.65856 | 8186 ft | 280 kts | 117° |
| 2026-05-05 12:38 | 51.07955 | -0.63178 | 7954 ft | 277 kts | 117° |
| 2026-05-05 12:38 | 51.06992 | -0.60470 | 7951 ft | 279 kts | 117° |
| 2026-05-05 12:38 | 51.06043 | -0.57808 | 7942 ft | 280 kts | 117° |
| 2026-05-05 12:39 | 51.05082 | -0.55113 | 7938 ft | 280 kts | 117° |
| 2026-05-05 12:39 | 51.04113 | -0.52403 | 7939 ft | 279 kts | 117° |
| 2026-05-05 12:39 | 51.03150 | -0.49710 | 7944 ft | 279 kts | 117° |
| 2026-05-05 12:39 | 51.02200 | -0.47055 | 7937 ft | 279 kts | 117° |
| 2026-05-05 12:40 | 51.01238 | -0.44374 | 7933 ft | 279 kts | 117° |
| 2026-05-05 12:40 | 51.00269 | -0.41672 | 7931 ft | 279 kts | 117° |
| 2026-05-05 12:40 | 50.99308 | -0.38998 | 7934 ft | 279 kts | 117° |
| 2026-05-05 12:40 | 50.98358 | -0.36355 | 7936 ft | 279 kts | 117° |
| 2026-05-05 12:41 | 50.97385 | -0.33651 | 7933 ft | 279 kts | 118° |
| 2026-05-05 12:41 | 50.96423 | -0.30978 | 7934 ft | 279 kts | 118° |
| 2026-05-05 12:41 | 50.95461 | -0.28308 | 7931 ft | 280 kts | 118° |
| 2026-05-05 12:41 | 50.94494 | -0.25632 | 7933 ft | 280 kts | 118° |
| 2026-05-05 12:42 | 50.93518 | -0.22935 | 7933 ft | 279 kts | 118° |
| 2026-05-05 12:42 | 50.92559 | -0.20283 | 7934 ft | 279 kts | 118° |
| 2026-05-05 12:42 | 50.91581 | -0.17585 | 7935 ft | 278 kts | 118° |
| 2026-05-05 12:42 | 50.90638 | -0.14988 | 7928 ft | 267 kts | 118° |
| 2026-05-05 12:43 | 50.89740 | -0.12517 | 7923 ft | 252 kts | 118° |
| 2026-05-05 12:43 | 50.88879 | -0.10135 | 7770 ft | 244 kts | 115° |
| 2026-05-05 12:43 | 50.88406 | -0.07548 | 7197 ft | 249 kts | 87° |
| 2026-05-05 12:43 | 50.88851 | -0.04978 | 6909 ft | 241 kts | 56° |
| 2026-05-05 12:44 | 50.90028 | -0.03218 | 6691 ft | 234 kts | 26° |
| 2026-05-05 12:44 | 50.91607 | -0.02703 | 6355 ft | 234 kts | 354° |
| 2026-05-05 12:44 | 50.93110 | -0.03612 | 6041 ft | 234 kts | 322° |
| 2026-05-05 12:44 | 50.94084 | -0.05662 | 5993 ft | 239 kts | 297° |
| 2026-05-05 12:45 | 50.94729 | -0.08131 | 5991 ft | 241 kts | 292° |
| 2026-05-05 12:45 | 50.95300 | -0.10646 | 5990 ft | 242 kts | 291° |
| 2026-05-05 12:45 | 50.95850 | -0.13139 | 5991 ft | 242 kts | 291° |
| 2026-05-05 12:45 | 50.96404 | -0.15674 | 5990 ft | 242 kts | 291° |
| 2026-05-05 12:46 | 50.96948 | -0.18175 | 5835 ft | 239 kts | 291° |
| 2026-05-05 12:46 | 50.97489 | -0.20666 | 5486 ft | 240 kts | 291° |
| 2026-05-05 12:46 | 50.97943 | -0.23227 | 5162 ft | 241 kts | 284° |
| 2026-05-05 12:46 | 50.98234 | -0.25811 | 4998 ft | 238 kts | 282° |
| 2026-05-05 12:47 | 50.98494 | -0.28408 | 4996 ft | 241 kts | 281° |
| 2026-05-05 12:47 | 50.98753 | -0.31061 | 4992 ft | 241 kts | 281° |
| 2026-05-05 12:47 | 50.99006 | -0.33672 | 4993 ft | 241 kts | 281° |
| 2026-05-05 12:47 | 50.99262 | -0.36307 | 4993 ft | 241 kts | 281° |
| 2026-05-05 12:48 | 50.99517 | -0.38931 | 4994 ft | 241 kts | 281° |
| 2026-05-05 12:48 | 50.99801 | -0.41568 | 4987 ft | 239 kts | 289° |
| 2026-05-05 12:48 | 51.00586 | -0.43785 | 4777 ft | 230 kts | 320° |
| 2026-05-05 12:48 | 51.01917 | -0.45132 | 4433 ft | 227 kts | 338° |
| 2026-05-05 12:49 | 51.03372 | -0.46121 | 4121 ft | 226 kts | 341° |
| 2026-05-05 12:49 | 51.04817 | -0.47034 | 3872 ft | 223 kts | 341° |
| 2026-05-05 12:49 | 51.06247 | -0.47925 | 3573 ft | 222 kts | 341° |
| 2026-05-05 12:49 | 51.07693 | -0.48825 | 3506 ft | 222 kts | 341° |
| 2026-05-05 12:50 | 51.09106 | -0.49706 | 3488 ft | 209 kts | 341° |
| 2026-05-05 12:50 | 51.10426 | -0.50440 | 3468 ft | 192 kts | 356° |
| 2026-05-05 12:50 | 51.11642 | -0.50050 | 3541 ft | 177 kts | 33° |
| 2026-05-05 12:50 | 51.12369 | -0.48494 | 3512 ft | 180 kts | 72° |
| 2026-05-05 12:51 | 51.12422 | -0.46564 | 3369 ft | 173 kts | 90° |
| 2026-05-05 12:51 | 51.12289 | -0.44679 | 3130 ft | 167 kts | 94° |
| 2026-05-05 12:51 | 51.12137 | -0.42891 | 2907 ft | 160 kts | 94° |
| 2026-05-05 12:51 | 51.12049 | -0.41142 | 2708 ft | 159 kts | 87° |
| 2026-05-05 12:52 | 51.12107 | -0.39379 | 2514 ft | 157 kts | 81° |
| 2026-05-05 12:52 | 51.12269 | -0.37668 | 2319 ft | 156 kts | 76° |
| 2026-05-05 12:52 | 51.12487 | -0.35979 | 2124 ft | 155 kts | 75° |
| 2026-05-05 12:52 | 51.12715 | -0.34324 | 1920 ft | 154 kts | 75° |
| 2026-05-05 12:53 | 51.12948 | -0.32640 | 1715 ft | 154 kts | 74° |
| 2026-05-05 12:53 | 51.13168 | -0.31032 | 1497 ft | 142 kts | 75° |
| 2026-05-05 12:53 | 51.13371 | -0.29539 | 1299 ft | 135 kts | 76° |
| 2026-05-05 12:53 | 51.13570 | -0.28083 | 1130 ft | 137 kts | 73° |
| 2026-05-05 12:54 | 51.13976 | -0.25094 | 796 ft | 138 kts | 76° |
| 2026-05-05 12:54 | 51.14177 | -0.23584 | 585 ft | 138 kts | 75° |
| 2026-05-05 12:54 | 51.14376 | -0.22100 | 389 ft | 139 kts | 72° |
| 2026-05-05 12:55 | 51.14591 | -0.20605 | 237 ft | 139 kts | 75° |
| 2026-05-05 12:55 | 51.14796 | -0.19171 | 200 ft | 120 kts | 77° |
| 2026-05-05 12:55 | 51.14939 | -0.18131 | 200 ft | 70 kts | 77° |
| 2026-05-05 12:55 | 51.15011 | -0.17603 | 200 ft | 38 kts | 77° |
| 2026-05-05 12:56 | 51.15087 | -0.17285 | 200 ft | 19 kts | 59° |
| 2026-05-05 12:56 | 51.15174 | -0.17217 | 200 ft | 15 kts | 321° |
| 2026-05-05 12:56 | 51.15238 | -0.17309 | 200 ft | 12 kts | 323° |
| 2026-05-05 12:56 | 51.15320 | -0.17366 | 200 ft | 13 kts | 347° |
| 2026-05-05 12:57 | 51.15414 | -0.17391 | 200 ft | 13 kts | 348° |
| 2026-05-05 12:57 | 51.15511 | -0.17426 | 200 ft | 14 kts | 347° |
| 2026-05-05 12:57 | 51.15610 | -0.17463 | 200 ft | 15 kts | 347° |
| 2026-05-05 12:57 | 51.15712 | -0.17498 | 200 ft | 13 kts | 348° |
| 2026-05-05 12:58 | 51.15773 | -0.17434 | 200 ft | 9 kts | 76° |
| 2026-05-05 12:58 | 51.15822 | -0.17422 | 200 ft | 8 kts | 343° |
| 2026-05-05 12:58 | 51.15856 | -0.17435 | 200 ft | 3 kts | 349° |
| 2026-05-05 12:58 | 51.15857 | -0.17436 | 200 ft | 0 kts | 349° |